sensor_id;sensor_type;location;lat;lon;timestamp;pressure;altitude;pressure_sealevel;temperature;humidity
50702;BME280;36670;50.094;8.496;2023-03-01T00:01:45;101528.09;;;1.93;53.77
50702;BME280;36670;50.094;8.496;2023-03-01T00:04:10;101528.44;;;1.90;54.63
50702;BME280;36670;50.094;8.496;2023-03-01T00:06:35;101522.47;;;1.86;54.31
50702;BME280;36670;50.094;8.496;2023-03-01T00:09:01;101530.66;;;1.95;54.40
50702;BME280;36670;50.094;8.496;2023-03-01T00:11:29;101529.66;;;1.96;54.25
50702;BME280;36670;50.094;8.496;2023-03-01T00:13:56;101533.38;;;1.95;54.60
50702;BME280;36670;50.094;8.496;2023-03-01T00:16:26;101526.44;;;2.09;53.83
50702;BME280;36670;50.094;8.496;2023-03-01T00:18:54;101535.31;;;2.11;53.79
50702;BME280;36670;50.094;8.496;2023-03-01T00:21:20;101534.47;;;2.10;53.84
50702;BME280;36670;50.094;8.496;2023-03-01T00:23:48;101530.69;;;2.03;53.67
50702;BME280;36670;50.094;8.496;2023-03-01T00:26:16;101531.88;;;1.92;54.01
50702;BME280;36670;50.094;8.496;2023-03-01T00:28:42;101528.13;;;2.01;54.01
50702;BME280;36670;50.094;8.496;2023-03-01T00:31:13;101527.28;;;1.93;54.82
50702;BME280;36670;50.094;8.496;2023-03-01T00:33:40;101526.94;;;1.96;54.51
50702;BME280;36670;50.094;8.496;2023-03-01T00:36:05;101526.56;;;1.82;54.90
50702;BME280;36670;50.094;8.496;2023-03-01T00:38:35;101522.03;;;1.99;54.59
50702;BME280;36670;50.094;8.496;2023-03-01T00:41:11;101519.09;;;1.93;54.85
50702;BME280;36670;50.094;8.496;2023-03-01T00:43:37;101509.69;;;1.79;54.89
50702;BME280;36670;50.094;8.496;2023-03-01T00:46:23;101502.88;;;1.75;55.28
50702;BME280;36670;50.094;8.496;2023-03-01T00:48:49;101498.28;;;1.75;55.03
50702;BME280;36670;50.094;8.496;2023-03-01T00:51:17;101494.56;;;1.84;54.51
50702;BME280;36670;50.094;8.496;2023-03-01T00:53:43;101491.72;;;2.02;54.52
50702;BME280;36670;50.094;8.496;2023-03-01T00:56:09;101500.03;;;1.93;54.95
50702;BME280;36670;50.094;8.496;2023-03-01T00:58:35;101495.69;;;1.65;55.47
50702;BME280;36670;50.094;8.496;2023-03-01T01:01:01;101497.63;;;1.81;54.92
50702;BME280;36670;50.094;8.496;2023-03-01T01:03:31;101496.44;;;1.84;54.65
50702;BME280;36670;50.094;8.496;2023-03-01T01:05:57;101502.66;;;1.68;55.23
50702;BME280;36670;50.094;8.496;2023-03-01T01:08:23;101496.22;;;1.69;55.20
50702;BME280;36670;50.094;8.496;2023-03-01T01:10:48;101497.44;;;1.75;55.16
50702;BME280;36670;50.094;8.496;2023-03-01T01:13:14;101490.25;;;1.74;54.69
50702;BME280;36670;50.094;8.496;2023-03-01T01:15:39;101487.97;;;1.95;55.23
50702;BME280;36670;50.094;8.496;2023-03-01T01:18:06;101481.50;;;1.96;54.50
50702;BME280;36670;50.094;8.496;2023-03-01T01:20:31;101477.56;;;1.82;55.39
50702;BME280;36670;50.094;8.496;2023-03-01T01:22:57;101471.22;;;1.82;55.12
50702;BME280;36670;50.094;8.496;2023-03-01T01:25:22;101464.63;;;1.93;54.99
50702;BME280;36670;50.094;8.496;2023-03-01T01:27:50;101464.09;;;1.89;54.55
50702;BME280;36670;50.094;8.496;2023-03-01T01:30:15;101464.81;;;1.91;54.94
50702;BME280;36670;50.094;8.496;2023-03-01T01:32:41;101456.47;;;1.93;54.60
50702;BME280;36670;50.094;8.496;2023-03-01T01:35:06;101439.25;;;1.76;54.58
50702;BME280;36670;50.094;8.496;2023-03-01T01:37:31;101440.63;;;1.88;55.13
50702;BME280;36670;50.094;8.496;2023-03-01T01:39:58;101435.31;;;1.70;55.70
50702;BME280;36670;50.094;8.496;2023-03-01T01:42:24;101435.50;;;1.85;54.76
50702;BME280;36670;50.094;8.496;2023-03-01T01:45:30;101438.22;;;1.93;54.98
50702;BME280;36670;50.094;8.496;2023-03-01T01:48:00;101433.41;;;1.62;55.44
50702;BME280;36670;50.094;8.496;2023-03-01T01:50:28;101437.53;;;1.75;55.92
50702;BME280;36670;50.094;8.496;2023-03-01T01:53:03;101440.91;;;1.77;55.19
50702;BME280;36670;50.094;8.496;2023-03-01T01:55:29;101447.78;;;1.97;55.01
50702;BME280;36670;50.094;8.496;2023-03-01T01:57:59;101448.28;;;1.84;55.13
50702;BME280;36670;50.094;8.496;2023-03-01T02:00:28;101451.69;;;2.03;54.90
50702;BME280;36670;50.094;8.496;2023-03-01T02:03:04;101455.78;;;1.99;54.96
50702;BME280;36670;50.094;8.496;2023-03-01T02:05:56;101453.72;;;1.84;55.23
50702;BME280;36670;50.094;8.496;2023-03-01T02:08:27;101452.34;;;1.80;54.98
50702;BME280;36670;50.094;8.496;2023-03-01T02:10:55;101447.56;;;1.66;55.96
50702;BME280;36670;50.094;8.496;2023-03-01T02:13:22;101452.69;;;1.85;55.88
50702;BME280;36670;50.094;8.496;2023-03-01T02:15:48;101453.06;;;1.99;55.33
50702;BME280;36670;50.094;8.496;2023-03-01T02:18:17;101451.53;;;1.96;55.37
50702;BME280;36670;50.094;8.496;2023-03-01T02:21:05;101452.91;;;1.92;54.45
50702;BME280;36670;50.094;8.496;2023-03-01T02:23:33;101440.78;;;1.95;55.15
50702;BME280;36670;50.094;8.496;2023-03-01T02:26:14;101441.63;;;1.87;55.12
50702;BME280;36670;50.094;8.496;2023-03-01T02:28:43;101432.91;;;1.75;56.07
50702;BME280;36670;50.094;8.496;2023-03-01T02:31:10;101432.75;;;1.68;55.22
50702;BME280;36670;50.094;8.496;2023-03-01T02:33:57;101430.72;;;1.70;55.55
50702;BME280;36670;50.094;8.496;2023-03-01T02:36:30;101418.28;;;1.76;55.47
50702;BME280;36670;50.094;8.496;2023-03-01T02:38:58;101422.56;;;1.79;55.12
50702;BME280;36670;50.094;8.496;2023-03-01T02:41:26;101416.94;;;1.72;55.33
50702;BME280;36670;50.094;8.496;2023-03-01T02:43:53;101412.00;;;1.76;55.22
50702;BME280;36670;50.094;8.496;2023-03-01T02:46:21;101408.09;;;1.78;54.64
50702;BME280;36670;50.094;8.496;2023-03-01T02:48:54;101411.88;;;2.02;54.45
50702;BME280;36670;50.094;8.496;2023-03-01T02:54:25;101397.19;;;1.86;54.31
50702;BME280;36670;50.094;8.496;2023-03-01T02:56:52;101395.00;;;1.90;54.66
50702;BME280;36670;50.094;8.496;2023-03-01T02:59:20;101399.44;;;1.99;54.40
50702;BME280;36670;50.094;8.496;2023-03-01T03:01:47;101397.72;;;1.90;54.62
50702;BME280;36670;50.094;8.496;2023-03-01T03:04:17;101393.31;;;1.97;54.65
50702;BME280;36670;50.094;8.496;2023-03-01T03:06:44;101390.06;;;1.85;55.12
50702;BME280;36670;50.094;8.496;2023-03-01T03:09:10;101385.44;;;1.69;55.54
50702;BME280;36670;50.094;8.496;2023-03-01T03:11:36;101378.31;;;1.68;55.56
50702;BME280;36670;50.094;8.496;2023-03-01T03:14:02;101373.22;;;1.82;54.44
50702;BME280;36670;50.094;8.496;2023-03-01T03:16:28;101371.69;;;1.87;55.33
50702;BME280;36670;50.094;8.496;2023-03-01T03:18:55;101370.84;;;1.95;55.08
50702;BME280;36670;50.094;8.496;2023-03-01T03:21:31;101371.84;;;1.94;55.20
50702;BME280;36670;50.094;8.496;2023-03-01T03:23:56;101370.50;;;1.98;54.81
50702;BME280;36670;50.094;8.496;2023-03-01T03:26:22;101362.66;;;1.87;55.17
50702;BME280;36670;50.094;8.496;2023-03-01T03:28:47;101368.78;;;1.89;54.32
50702;BME280;36670;50.094;8.496;2023-03-01T03:31:13;101368.78;;;1.97;54.30
50702;BME280;36670;50.094;8.496;2023-03-01T03:33:38;101361.97;;;1.93;54.20
50702;BME280;36670;50.094;8.496;2023-03-01T03:36:04;101362.31;;;1.90;55.02
50702;BME280;36670;50.094;8.496;2023-03-01T03:38:30;101360.47;;;1.82;55.34
50702;BME280;36670;50.094;8.496;2023-03-01T03:41:05;101360.75;;;1.71;55.23
50702;BME280;36670;50.094;8.496;2023-03-01T03:43:34;101345.97;;;1.82;54.26
50702;BME280;36670;50.094;8.496;2023-03-01T03:46:00;101352.13;;;1.92;54.57
50702;BME280;36670;50.094;8.496;2023-03-01T03:48:25;101347.19;;;2.04;53.71
50702;BME280;36670;50.094;8.496;2023-03-01T03:50:53;101345.16;;;2.06;54.51
50702;BME280;36670;50.094;8.496;2023-03-01T03:53:20;101339.19;;;2.02;54.07
50702;BME280;36670;50.094;8.496;2023-03-01T03:55:45;101342.56;;;1.72;54.90
50702;BME280;36670;50.094;8.496;2023-03-01T03:58:14;101338.16;;;1.79;54.69
50702;BME280;36670;50.094;8.496;2023-03-01T04:00:43;101338.16;;;1.79;55.09
50702;BME280;36670;50.094;8.496;2023-03-01T04:03:10;101339.34;;;1.84;54.75
50702;BME280;36670;50.094;8.496;2023-03-01T04:05:37;101341.41;;;1.82;54.47
50702;BME280;36670;50.094;8.496;2023-03-01T04:08:03;101344.63;;;1.78;55.04
50702;BME280;36670;50.094;8.496;2023-03-01T04:10:40;101341.91;;;1.86;53.85
50702;BME280;36670;50.094;8.496;2023-03-01T04:13:08;101346.31;;;1.79;54.84
50702;BME280;36670;50.094;8.496;2023-03-01T04:15:34;101348.53;;;2.00;54.11
50702;BME280;36670;50.094;8.496;2023-03-01T04:18:00;101352.97;;;2.01;53.78
50702;BME280;36670;50.094;8.496;2023-03-01T04:20:29;101348.03;;;1.88;54.22
50702;BME280;36670;50.094;8.496;2023-03-01T04:23:18;101357.53;;;2.00;53.79
50702;BME280;36670;50.094;8.496;2023-03-01T04:25:55;101352.28;;;1.74;55.03
50702;BME280;36670;50.094;8.496;2023-03-01T04:28:34;101352.44;;;1.73;54.80
50702;BME280;36670;50.094;8.496;2023-03-01T04:31:15;101342.16;;;1.42;55.80
50702;BME280;36670;50.094;8.496;2023-03-01T04:33:47;101342.53;;;1.47;55.93
50702;BME280;36670;50.094;8.496;2023-03-01T04:36:15;101344.53;;;1.28;56.86
50702;BME280;36670;50.094;8.496;2023-03-01T04:38:40;101339.16;;;1.45;56.00
50702;BME280;36670;50.094;8.496;2023-03-01T04:41:08;101336.06;;;1.40;56.27
50702;BME280;36670;50.094;8.496;2023-03-01T04:43:34;101340.34;;;1.50;55.82
50702;BME280;36670;50.094;8.496;2023-03-01T04:46:04;101335.88;;;1.41;56.36
50702;BME280;36670;50.094;8.496;2023-03-01T04:48:31;101334.88;;;1.42;55.52
50702;BME280;36670;50.094;8.496;2023-03-01T04:50:58;101338.41;;;1.34;56.06
50702;BME280;36670;50.094;8.496;2023-03-01T04:53:24;101336.69;;;1.17;56.45
50702;BME280;36670;50.094;8.496;2023-03-01T04:55:49;101338.59;;;1.33;56.17
50702;BME280;36670;50.094;8.496;2023-03-01T04:58:15;101329.41;;;1.26;56.84
50702;BME280;36670;50.094;8.496;2023-03-01T05:00:40;101331.91;;;1.19;56.68
50702;BME280;36670;50.094;8.496;2023-03-01T05:03:05;101334.63;;;1.11;57.08
50702;BME280;36670;50.094;8.496;2023-03-01T05:05:33;101338.38;;;1.18;56.16
50702;BME280;36670;50.094;8.496;2023-03-01T05:08:01;101341.28;;;1.25;56.94
50702;BME280;36670;50.094;8.496;2023-03-01T05:10:28;101339.75;;;1.22;56.37
50702;BME280;36670;50.094;8.496;2023-03-01T05:12:55;101335.31;;;1.21;56.47
50702;BME280;36670;50.094;8.496;2023-03-01T05:15:22;101333.81;;;1.35;56.48
50702;BME280;36670;50.094;8.496;2023-03-01T05:17:50;101329.41;;;1.34;55.81
50702;BME280;36670;50.094;8.496;2023-03-01T05:20:16;101334.97;;;1.16;56.45
50702;BME280;36670;50.094;8.496;2023-03-01T05:22:42;101327.19;;;1.29;56.53
50702;BME280;36670;50.094;8.496;2023-03-01T05:25:07;101328.06;;;1.38;56.02
50702;BME280;36670;50.094;8.496;2023-03-01T05:27:33;101326.56;;;1.52;55.00
50702;BME280;36670;50.094;8.496;2023-03-01T05:29:58;101326.19;;;1.47;55.92
50702;BME280;36670;50.094;8.496;2023-03-01T05:32:23;101331.66;;;1.55;55.08
50702;BME280;36670;50.094;8.496;2023-03-01T05:34:49;101329.78;;;1.56;54.75
50702;BME280;36670;50.094;8.496;2023-03-01T05:37:15;101324.31;;;1.47;55.35
50702;BME280;36670;50.094;8.496;2023-03-01T05:39:40;101321.78;;;1.54;54.93
50702;BME280;36670;50.094;8.496;2023-03-01T05:42:10;101328.41;;;1.51;54.26
50702;BME280;36670;50.094;8.496;2023-03-01T05:44:35;101327.91;;;1.48;54.92
50702;BME280;36670;50.094;8.496;2023-03-01T05:47:01;101321.63;;;1.72;54.73
50702;BME280;36670;50.094;8.496;2023-03-01T05:49:26;101319.25;;;1.52;55.26
50702;BME280;36670;50.094;8.496;2023-03-01T05:51:52;101325.38;;;1.55;55.24
50702;BME280;36670;50.094;8.496;2023-03-01T05:54:19;101318.91;;;1.56;54.73
50702;BME280;36670;50.094;8.496;2023-03-01T05:56:44;101320.97;;;1.62;54.33
50702;BME280;36670;50.094;8.496;2023-03-01T05:59:10;101321.47;;;1.74;55.59
50702;BME280;36670;50.094;8.496;2023-03-01T06:01:36;101320.44;;;1.75;54.36
50702;BME280;36670;50.094;8.496;2023-03-01T06:04:03;101320.09;;;1.69;55.09
50702;BME280;36670;50.094;8.496;2023-03-01T06:06:29;101316.38;;;1.70;54.86
50702;BME280;36670;50.094;8.496;2023-03-01T06:08:54;101318.25;;;1.62;55.57
50702;BME280;36670;50.094;8.496;2023-03-01T06:11:20;101322.00;;;1.77;54.46
50702;BME280;36670;50.094;8.496;2023-03-01T06:13:46;101322.31;;;1.66;54.78
50702;BME280;36670;50.094;8.496;2023-03-01T06:16:13;101332.03;;;1.68;54.93
50702;BME280;36670;50.094;8.496;2023-03-01T06:18:39;101330.31;;;1.67;55.16
50702;BME280;36670;50.094;8.496;2023-03-01T06:21:05;101328.59;;;1.58;55.00
50702;BME280;36670;50.094;8.496;2023-03-01T06:23:31;101329.63;;;1.65;55.07
50702;BME280;36670;50.094;8.496;2023-03-01T06:25:56;101329.28;;;1.52;55.34
50702;BME280;36670;50.094;8.496;2023-03-01T06:28:22;101324.88;;;1.59;55.19
50702;BME280;36670;50.094;8.496;2023-03-01T06:30:47;101327.59;;;1.59;54.93
50702;BME280;36670;50.094;8.496;2023-03-01T06:33:13;101325.06;;;1.66;54.81
50702;BME280;36670;50.094;8.496;2023-03-01T06:35:38;101332.50;;;1.64;54.18
50702;BME280;36670;50.094;8.496;2023-03-01T06:38:04;101322.66;;;1.55;54.90
50702;BME280;36670;50.094;8.496;2023-03-01T06:40:30;101322.13;;;1.51;55.49
50702;BME280;36670;50.094;8.496;2023-03-01T06:42:57;101327.41;;;1.52;55.82
50702;BME280;36670;50.094;8.496;2023-03-01T06:45:22;101317.38;;;1.61;55.15
50702;BME280;36670;50.094;8.496;2023-03-01T06:47:48;101311.59;;;1.64;54.73
50702;BME280;36670;50.094;8.496;2023-03-01T06:50:14;101303.44;;;1.64;54.92
50702;BME280;36670;50.094;8.496;2023-03-01T06:52:39;101302.75;;;1.79;54.41
50702;BME280;36670;50.094;8.496;2023-03-01T06:55:05;101306.00;;;1.74;54.50
50702;BME280;36670;50.094;8.496;2023-03-01T06:57:31;101310.91;;;1.70;54.51
50702;BME280;36670;50.094;8.496;2023-03-01T06:59:56;101307.53;;;1.68;55.52
50702;BME280;36670;50.094;8.496;2023-03-01T07:02:22;101309.03;;;1.79;54.99
50702;BME280;36670;50.094;8.496;2023-03-01T07:04:51;101308.56;;;1.84;54.80
50702;BME280;36670;50.094;8.496;2023-03-01T07:07:17;101309.56;;;1.99;54.20
50702;BME280;36670;50.094;8.496;2023-03-01T07:09:44;101307.00;;;2.06;54.72
50702;BME280;36670;50.094;8.496;2023-03-01T07:12:09;101313.13;;;2.00;54.73
50702;BME280;36670;50.094;8.496;2023-03-01T07:14:35;101314.66;;;2.11;53.75
50702;BME280;36670;50.094;8.496;2023-03-01T07:17:00;101308.84;;;2.22;53.75
50702;BME280;36670;50.094;8.496;2023-03-01T07:19:26;101317.53;;;2.34;53.21
50702;BME280;36670;50.094;8.496;2023-03-01T07:21:51;101313.47;;;2.21;54.42
50702;BME280;36670;50.094;8.496;2023-03-01T07:24:16;101313.06;;;2.41;53.81
50702;BME280;36670;50.094;8.496;2023-03-01T07:26:42;101311.19;;;2.50;53.61
50702;BME280;36670;50.094;8.496;2023-03-01T07:29:09;101314.22;;;2.55;53.52
50702;BME280;36670;50.094;8.496;2023-03-01T07:31:35;101310.97;;;2.60;52.95
50702;BME280;36670;50.094;8.496;2023-03-01T07:34:02;101304.88;;;2.49;53.87
50702;BME280;36670;50.094;8.496;2023-03-01T07:36:27;101299.94;;;2.36;54.01
50702;BME280;36670;50.094;8.496;2023-03-01T07:38:52;101293.97;;;2.49;53.54
50702;BME280;36670;50.094;8.496;2023-03-01T07:41:18;101294.69;;;2.35;53.50
50702;BME280;36670;50.094;8.496;2023-03-01T07:43:43;101295.19;;;2.38;53.39
50702;BME280;36670;50.094;8.496;2023-03-01T07:46:09;101300.13;;;2.43;53.97
50702;BME280;36670;50.094;8.496;2023-03-01T07:48:34;101298.66;;;2.72;53.30
50702;BME280;36670;50.094;8.496;2023-03-01T07:51:01;101296.16;;;2.62;53.15
50702;BME280;36670;50.094;8.496;2023-03-01T07:53:27;101300.34;;;2.81;53.45
50702;BME280;36670;50.094;8.496;2023-03-01T07:58:31;101305.28;;;2.78;53.32
50702;BME280;36670;50.094;8.496;2023-03-01T08:01:01;101298.47;;;2.73;52.98
50702;BME280;36670;50.094;8.496;2023-03-01T08:03:27;101296.97;;;2.63;53.89
50702;BME280;36670;50.094;8.496;2023-03-01T08:05:52;101299.66;;;2.79;53.37
50702;BME280;36670;50.094;8.496;2023-03-01T08:08:18;101296.59;;;2.74;53.14
50702;BME280;36670;50.094;8.496;2023-03-01T08:10:43;101292.63;;;2.85;53.12
50702;BME280;36670;50.094;8.496;2023-03-01T08:13:08;101294.03;;;2.72;53.23
50702;BME280;36670;50.094;8.496;2023-03-01T08:15:33;101300.00;;;2.76;52.68
50702;BME280;36670;50.094;8.496;2023-03-01T08:17:59;101296.22;;;2.85;52.98
50702;BME280;36670;50.094;8.496;2023-03-01T08:20:24;101288.81;;;3.02;51.57
50702;BME280;36670;50.094;8.496;2023-03-01T08:22:49;101289.25;;;2.83;52.58
50702;BME280;36670;50.094;8.496;2023-03-01T08:25:15;101284.78;;;2.90;52.13
50702;BME280;36670;50.094;8.496;2023-03-01T08:27:40;101283.38;;;3.25;51.50
50702;BME280;36670;50.094;8.496;2023-03-01T08:30:06;101283.22;;;3.27;51.13
50702;BME280;36670;50.094;8.496;2023-03-01T08:32:36;101285.31;;;3.17;51.40
50702;BME280;36670;50.094;8.496;2023-03-01T08:35:02;101279.03;;;3.39;50.45
50702;BME280;36670;50.094;8.496;2023-03-01T08:37:27;101277.94;;;3.49;50.02
50702;BME280;36670;50.094;8.496;2023-03-01T08:39:55;101269.31;;;3.60;50.80
50702;BME280;36670;50.094;8.496;2023-03-01T08:42:21;101263.53;;;3.78;49.52
50702;BME280;36670;50.094;8.496;2023-03-01T08:44:46;101264.72;;;3.61;49.92
50702;BME280;36670;50.094;8.496;2023-03-01T08:47:11;101264.22;;;3.57;49.64
50702;BME280;36670;50.094;8.496;2023-03-01T08:49:36;101262.59;;;3.71;49.57
50702;BME280;36670;50.094;8.496;2023-03-01T08:52:02;101263.47;;;3.63;48.90
50702;BME280;36670;50.094;8.496;2023-03-01T08:54:27;101267.53;;;3.52;49.17
50702;BME280;36670;50.094;8.496;2023-03-01T08:56:53;101261.38;;;3.50;49.54
50702;BME280;36670;50.094;8.496;2023-03-01T08:59:19;101257.25;;;3.78;49.53
50702;BME280;36670;50.094;8.496;2023-03-01T09:01:44;101256.94;;;3.72;49.10
50702;BME280;36670;50.094;8.496;2023-03-01T09:04:11;101254.97;;;3.81;49.43
50702;BME280;36670;50.094;8.496;2023-03-01T09:06:36;101236.41;;;3.76;49.06
50702;BME280;36670;50.094;8.496;2023-03-01T09:09:03;101239.97;;;3.77;48.75
50702;BME280;36670;50.094;8.496;2023-03-01T09:11:29;101244.75;;;3.98;49.60
50702;BME280;36670;50.094;8.496;2023-03-01T09:13:55;101244.31;;;4.09;48.55
50702;BME280;36670;50.094;8.496;2023-03-01T09:16:21;101250.03;;;4.15;48.49
50702;BME280;36670;50.094;8.496;2023-03-01T09:18:52;101248.09;;;4.23;48.77
50702;BME280;36670;50.094;8.496;2023-03-01T09:21:19;101245.81;;;4.27;48.34
50702;BME280;36670;50.094;8.496;2023-03-01T09:23:47;101233.56;;;4.38;47.90
50702;BME280;36670;50.094;8.496;2023-03-01T09:26:19;101237.63;;;4.42;48.09
50702;BME280;36670;50.094;8.496;2023-03-01T09:28:45;101230.28;;;4.27;48.47
50702;BME280;36670;50.094;8.496;2023-03-01T09:31:11;101227.16;;;4.31;48.96
50702;BME280;36670;50.094;8.496;2023-03-01T09:33:38;101228.38;;;4.58;48.41
50702;BME280;36670;50.094;8.496;2023-03-01T09:36:06;101222.81;;;4.51;48.20
50702;BME280;36670;50.094;8.496;2023-03-01T09:38:32;101220.91;;;4.37;48.65
50702;BME280;36670;50.094;8.496;2023-03-01T09:40:59;101216.22;;;4.31;48.21
50702;BME280;36670;50.094;8.496;2023-03-01T09:43:44;101207.97;;;4.60;48.53
50702;BME280;36670;50.094;8.496;2023-03-01T09:46:13;101212.63;;;4.96;48.00
50702;BME280;36670;50.094;8.496;2023-03-01T09:48:44;101216.91;;;5.21;47.59
50702;BME280;36670;50.094;8.496;2023-03-01T09:51:16;101218.72;;;5.13;46.97
50702;BME280;36670;50.094;8.496;2023-03-01T09:53:43;101206.44;;;4.88;46.66
50702;BME280;36670;50.094;8.496;2023-03-01T09:56:26;101209.00;;;4.74;48.13
50702;BME280;36670;50.094;8.496;2023-03-01T10:04:48;101202.53;;;4.97;47.19
50702;BME280;36670;50.094;8.496;2023-03-01T10:07:32;101200.31;;;4.86;46.98
50702;BME280;36670;50.094;8.496;2023-03-01T10:09:59;101202.97;;;5.01;47.03
50702;BME280;36670;50.094;8.496;2023-03-01T10:12:29;101204.38;;;5.11;46.88
50702;BME280;36670;50.094;8.496;2023-03-01T10:15:04;101202.78;;;5.02;46.88
50702;BME280;36670;50.094;8.496;2023-03-01T10:17:35;101198.97;;;5.18;46.64
50702;BME280;36670;50.094;8.496;2023-03-01T10:20:14;101217.22;;;5.54;46.57
50702;BME280;36670;50.094;8.496;2023-03-01T10:22:41;101193.13;;;5.71;46.29
50702;BME280;36670;50.094;8.496;2023-03-01T10:25:08;101194.63;;;5.74;45.99
50702;BME280;36670;50.094;8.496;2023-03-01T10:27:54;101192.25;;;5.42;46.26
50702;BME280;36670;50.094;8.496;2023-03-01T10:30:38;101184.75;;;5.51;45.84
50702;BME280;36670;50.094;8.496;2023-03-01T10:33:23;101182.38;;;5.70;46.18
50702;BME280;36670;50.094;8.496;2023-03-01T10:35:50;101183.81;;;5.44;45.40
50702;BME280;36670;50.094;8.496;2023-03-01T10:38:17;101192.84;;;5.38;46.00
50702;BME280;36670;50.094;8.496;2023-03-01T10:43:19;101177.91;;;5.40;46.18
50702;BME280;36670;50.094;8.496;2023-03-01T10:45:45;101172.19;;;5.63;45.98
50702;BME280;36670;50.094;8.496;2023-03-01T10:48:25;101172.16;;;5.57;45.56
50702;BME280;36670;50.094;8.496;2023-03-01T10:51:14;101166.34;;;5.73;45.95
50702;BME280;36670;50.094;8.496;2023-03-01T10:53:47;101165.72;;;5.71;46.60
50702;BME280;36670;50.094;8.496;2023-03-01T10:56:14;101158.91;;;5.89;45.58
50702;BME280;36670;50.094;8.496;2023-03-01T10:59:02;101146.19;;;5.81;45.81
50702;BME280;36670;50.094;8.496;2023-03-01T11:01:30;101143.00;;;6.06;45.29
50702;BME280;36670;50.094;8.496;2023-03-01T11:04:17;101138.63;;;6.11;45.43
50702;BME280;36670;50.094;8.496;2023-03-01T11:06:43;101131.47;;;6.17;45.41
50702;BME280;36670;50.094;8.496;2023-03-01T11:09:15;101130.84;;;5.87;44.60
50702;BME280;36670;50.094;8.496;2023-03-01T11:11:41;101141.53;;;5.81;45.00
50702;BME280;36670;50.094;8.496;2023-03-01T11:14:15;101118.94;;;6.01;45.15
50702;BME280;36670;50.094;8.496;2023-03-01T11:16:46;101114.94;;;6.04;44.78
50702;BME280;36670;50.094;8.496;2023-03-01T11:22:33;101101.50;;;6.15;45.33
50702;BME280;36670;50.094;8.496;2023-03-01T11:24:43;101094.66;;;6.46;44.26
50702;BME280;36670;50.094;8.496;2023-03-01T11:27:21;101101.47;;;6.71;44.03
50702;BME280;36670;50.094;8.496;2023-03-01T11:29:59;101100.25;;;6.80;42.82
50702;BME280;36670;50.094;8.496;2023-03-01T11:32:29;101090.72;;;6.76;43.25
50702;BME280;36670;50.094;8.496;2023-03-01T11:35:05;101093.91;;;6.86;43.46
50702;BME280;36670;50.094;8.496;2023-03-01T11:37:43;101088.25;;;7.08;42.10
50702;BME280;36670;50.094;8.496;2023-03-01T11:40:11;101088.88;;;7.03;42.15
50702;BME280;36670;50.094;8.496;2023-03-01T11:42:40;101075.16;;;7.23;42.73
50702;BME280;36670;50.094;8.496;2023-03-01T11:45:10;101070.94;;;7.21;42.00
50702;BME280;36670;50.094;8.496;2023-03-01T11:48:00;101085.06;;;7.11;41.65
50702;BME280;36670;50.094;8.496;2023-03-01T11:50:44;101073.47;;;7.15;42.22
50702;BME280;36670;50.094;8.496;2023-03-01T11:56:09;101059.09;;;7.20;41.51
50702;BME280;36670;50.094;8.496;2023-03-01T12:01:51;101054.25;;;7.15;41.66
50702;BME280;36670;50.094;8.496;2023-03-01T12:07:14;101040.19;;;7.84;39.88
50702;BME280;36670;50.094;8.496;2023-03-01T12:09:59;101035.81;;;7.56;40.56
50702;BME280;36670;50.094;8.496;2023-03-01T12:18:35;101019.22;;;7.90;40.32
50702;BME280;36670;50.094;8.496;2023-03-01T12:21:30;101041.66;;;7.86;39.80
50702;BME280;36670;50.094;8.496;2023-03-01T12:27:12;101009.84;;;7.45;40.80
50702;BME280;36670;50.094;8.496;2023-03-01T12:30:00;101014.88;;;7.55;40.33
50702;BME280;36670;50.094;8.496;2023-03-01T12:35:33;101011.41;;;7.86;38.88
50702;BME280;36670;50.094;8.496;2023-03-01T12:46:37;100982.78;;;8.08;38.92
50702;BME280;36670;50.094;8.496;2023-03-01T12:51:38;100978.56;;;8.37;39.30
50702;BME280;36670;50.094;8.496;2023-03-01T12:54:31;100977.66;;;8.50;39.36
50702;BME280;36670;50.094;8.496;2023-03-01T12:57:17;100964.31;;;8.53;38.95
50702;BME280;36670;50.094;8.496;2023-03-01T13:00:00;100967.34;;;8.45;38.43
50702;BME280;36670;50.094;8.496;2023-03-01T13:02:49;100942.78;;;8.44;37.68
50702;BME280;36670;50.094;8.496;2023-03-01T13:05:31;100948.28;;;8.44;37.16
50702;BME280;36670;50.094;8.496;2023-03-01T13:08:12;100943.03;;;8.35;36.70
50702;BME280;36670;50.094;8.496;2023-03-01T13:10:49;100947.34;;;8.25;37.85
50702;BME280;36670;50.094;8.496;2023-03-01T13:13:25;100938.31;;;8.43;37.72
50702;BME280;36670;50.094;8.496;2023-03-01T13:15:52;100947.69;;;8.35;37.86
50702;BME280;36670;50.094;8.496;2023-03-01T13:28:46;100916.25;;;8.81;37.26
50702;BME280;36670;50.094;8.496;2023-03-01T13:33:51;100925.53;;;9.05;36.75
50702;BME280;36670;50.094;8.496;2023-03-01T13:38:55;100905.47;;;8.98;37.11
50702;BME280;36670;50.094;8.496;2023-03-01T13:46:50;100897.69;;;8.95;36.76
50702;BME280;36670;50.094;8.496;2023-03-01T13:49:19;100891.78;;;8.92;36.77
50702;BME280;36670;50.094;8.496;2023-03-01T13:51:47;100888.81;;;9.12;36.49
50702;BME280;36670;50.094;8.496;2023-03-01T13:54:14;100919.25;;;8.98;36.14
50702;BME280;36670;50.094;8.496;2023-03-01T13:56:40;100889.25;;;8.90;36.41
50702;BME280;36670;50.094;8.496;2023-03-01T14:01:37;100883.75;;;8.90;37.24
50702;BME280;36670;50.094;8.496;2023-03-01T14:04:14;100885.97;;;9.00;36.85
50702;BME280;36670;50.094;8.496;2023-03-01T14:06:43;100881.03;;;8.83;37.22
50702;BME280;36670;50.094;8.496;2023-03-01T14:09:23;100887.56;;;8.89;36.93
50702;BME280;36670;50.094;8.496;2023-03-01T14:11:59;100880.72;;;8.73;37.20
50702;BME280;36670;50.094;8.496;2023-03-01T14:17:14;100873.81;;;8.64;37.45
50702;BME280;36670;50.094;8.496;2023-03-01T14:19:45;100876.91;;;8.74;37.29
50702;BME280;36670;50.094;8.496;2023-03-01T14:24:40;100886.09;;;8.86;37.58
50702;BME280;36670;50.094;8.496;2023-03-01T14:27:11;100880.94;;;8.97;36.84
50702;BME280;36670;50.094;8.496;2023-03-01T14:29:39;100888.81;;;9.12;36.51